岡山グライダークラブ活動状況掲示板あなたは無料カウンター人目の訪問者です

岡山グライダークラブ
岡山市浦安南町639-1 岡南飛行場
 使用機:シャイベ式 SF25C型 ファルケ   JA2330
      ヴァレンティン式17E型 タイフーン  JA2342
 練習日:毎日曜日  クラブルーム:電話 086-265-1810
この掲示板は岡山グライダークラブの活動状況をお知らせする掲示板です。
!!!この掲示板は投稿規制をしています。!!!
クラブ関連各種情報は 岡山グライダークラブクラブルーム      を       .
  ブリーフイング情報は  岡山グライダークラブブリーフィングルーム  をご覧下さい。 .
※写真はクリックすると拡大して見ることが出来ます。
岡南飛行場へのアクセス等は 岡南飛行場管理事務所 をご覧ください。
クラブの ホームページ ができました。

 
11月04日
by OGC at 2018/11/4(日) 20:15:43 No.20181104195434  削除コメント
1024 x 768 x 72,304バイト
No.1

11月04日
本日の参加者
  会員      12名
  その他      1名


@本日の様子




METAR
RJBK 040100Z VRB02KT 30KM FEW025CU BKN/// 13/08 Q1021 A3018
RKOB 040100Z 01004KT 330V040 9999 FEW020 BKN/// 15/10 Q1021
RJOT 040100Z 33003KT 270V050 9999 FEW025 BKN180 16/10 Q1021
RJOA 040100Z 08004KT 010V130 9999 FEW020 SCT/// 15/07 Q1021
TAF
RJOB 032308Z 0400/0506 06005KT 9999 FEW030
RJOT 032305Z 0400/0506 03006KT 9999 FEW025
RJOA 032308Z 0400/0506 15004KT 9999 FEW025

本日は、風が弱く絶好の訓練日和ということもあり、グライダーに飛行機、ヘリとトラフィックの多い一日でした。
ファルケはいつも通りの訓練フライトに小豆島へのナビ、タイフーンも訓練フライトに加え与島や豊島へのナビ。
ラストは、飛行場祭りが11月18日に開催されることから、フォーメーション練習で締めくくりました。



解散    17:20

1番機  10:50離陸 撤収機  16:45着陸 

SF25C JA2330 ファルケ     08Flt.3h10min  
17E   JA2342 タイフーン    05Flt.1h45min  
合計                    13Flt.4h55min

    << 戻る || ホームページ || 最新の掲示板へ